עמוד ראשי
METAR-TAF:

METAR-TAF

שדות תעופה :

ואיאדוליד, ספרד

קו רוחב: 41-43N, קו אורך: 004-51W, גובה: 849מטר

תצפית מזג אוויר נוכחית

הדו"ח נערך לפני 12דקות, בשעה 03:30 UTC
רוח 5קשר מכיוון מערב/דרום-מערב
טמפרטורת 11 צלסיוס
לחות 82%
לחץ 1017 hPa
ראות 10 קילומטר או יותר
ללא עננים שבסיסם נמוך מ 5000 רגל או קומולונימבוס

METAR: LEVD 140330Z AUTO 24005KT CAVOK 11/08 Q1017

זמן: 05:42 (03:42 UTC)

תחזית

הדו"ח נערך לפני 1 שעות ו 42דקות, בשעה 02:00 UTC
תחזית בתוקף מ 14 ב 03 UTC עד 15 ב 03 UTC
רוח 6קשר מכיוון מערב/דרום-מערב
ראות 10 קילומטר או יותר
מעט עננים בגובה 4000רגל
יעשה מ
14 ב 07 UTC עד 14 ב 09 UTC
רוח 15קשר מכיוון מערב
זמנית מ -
14 ב 12 UTC עד 14 ב 20 UTC
רוח 18קשר מכיוון מערב עם משבים עד 30קשר
יעשה מ
14 ב 20 UTC עד 14 ב 22 UTC
רוח 8קשר מכיוון צפון-מערב

TAF: LEVD 140200Z 1403/1503 25006KT 9999 FEW040 TX26/1415Z TN12/1405Z BECMG 1407/1409 26015KT TEMPO 1412/1420 26018G30KT BECMG 1420/1422 32008KT

תצפיות ותחזיות מזג אוויר לגבי יותר מ- 4,000 שדות תעופה ברחבי העולם. דוחות METAR ו- TAF.

התחנות הזמינות מסומנות בנקודות צהובות ואדומות על גבי המפה.

העבר את העכבר לנקודה הצבעונית על מנת לראות את שם התחנה.

לאחר מכן, לחץ כדי לראות את תוכן ואת תחזיות מזג האוויר.

כדי לשנות את המפה: לחץ על הכפתורים הירוקים עם הפלוס השחור כדי להתקרב; על הכפתור הירוק עם המקף כדי להתרחק; או בחיצים הירוקים למפות סמוכות.


METAR-TAF: